Meath Environmental Platform

Observations

Time Sensor AQI SAQ Temp °C Hum % Pres Pa CO μg/m³ H₂S μg/m³ NO μg/m³ NO₂ μg/m³ O₃ μg/m³ SO₂ μg/m³ CO₂e PPM VOC PPM PM1 μg/m³ PM2.5 μg/m³ PM4 μg/m³ PM10 μg/m³ TPS µm
Wednesday 12 August 2026
11:40 Trim Market St 2 34.1 35 66,325 0 0 0.3 12.19 88.87 0 1.43 4.16 4.19
11:39 Trim Patrick St 2 30.3 43 69,304 0 0 0.78 11.98 94.98 10.94 4.57 9.17 10.09
11:39 Trim Market St 2 34.1 35 66,325 0 0 0.34 12.19 80.05 0 1.43 4.15 4.56
11:38 Trim Patrick St 2 30.3 44 69,298 0 0 0.78 9.63 70.56 11.16 5.43 9.91 10.9
11:37 Trim Patrick St 2 30.2 43 69,290 0 0 0.79 11.79 72.64 10.5 4.57 10.75 11.82
11:36 Trim Patrick St 2 30.1 44 69,280 0 0 0.8 12 88.83 11.25 4.57 9.13 10.04
11:35 Trim Patrick St 2 30 44 69,267 0 0 0.79 15.01 78.42 10.18 8 13.81 15.19
11:34 Trim Market St 2 33.6 37 66,252 0 0 0.38 12.78 81.1 0 1.43 4.63 5.09
11:34 Trim Patrick St 2 29.9 44 69,282 0 0 0.77 14.65 82.16 10.37 7.14 12.24 13.46
11:33 Trim Patrick St 2 29.8 44 69,267 0 0 0.77 12.99 99.38 9.69 7.14 12.23 13.45
11:32 Trim Market St 2 33.3 37 66,208 0 0 0.29 12.45 105.94 0 2.85 5.15 5.66
11:32 Trim Patrick St 2 29.8 45 69,280 0 0 0.73 11.7 72.32 9.79 4.57 9.85 10.83
11:31 Trim Patrick St 2 29.6 45 69,265 0 0 0.74 11.72 98.48 10.55 3.71 9.02 9.92
11:30 Trim Patrick St 2 29.5 46 69,284 0 0 0.73 9.73 94.22 10.45 5.43 9.73 10.7
11:29 Trim Patrick St 2 29.5 45 69,269 0 0 0.75 10.01 106.36 10.59 4.57 9.82 10.81
11:28 Trim Patrick St 2 29.4 45 69,254 0 0 0.74 9.13 76.29 10.33 5.43 10.58 11.64
11:27 Trim Market St 2 32.8 37 66,198 0 0 0.33 14.38 100.79 0 2.85 5.68 5.88
11:26 Trim Patrick St 2 29.4 44 69,256 0 0 0.76 9.19 100.17 11.72 5.43 11.41 12.55
11:23 Trim Market St 2 32.7 36 66,227 0 0 0.47 12.22 110.63 0 2.14 5.17 5.68
11:22 Trim Patrick St 2 29.4 45 69,242 0 0 0.81 10.95 112.11 10.68 5.43 11.35 12.48